<?xml version="1.0" encoding="UTF-8" standalone="no" ?>
<gpx xmlns="http://www.topografix.com/GPX/1/1" xmlns:xsi="http://www.w3.org/2001/XMLSchema-instance" xsi:schemaLocation="http://www.topografix.com/GPX/1/1 http://www.topografix.com/GPX/1/1/gpx.xsd" version="1.1" creator="VisuGPX - https://www.visugpx.com">
  <metadata>
    <name>CHALO_SAINT_MARS_ST_HILAIRE</name>
    <desc><![CDATA[AVF Antony CHALO_SAINT_MARS_ST_HILAIRE]]></desc>
  </metadata>
  <trk>
    <name><![CDATA[ACTIVE LOG 003]]></name>
    <trkseg>
      <trkpt lat="48.44434" lon="2.0573">
        <ele>116.9375</ele>
        <time>2009-03-15T13:24:11Z</time>
      </trkpt>
      <trkpt lat="48.44434" lon="2.0573">
        <ele>116.9375</ele>
        <time>2009-03-15T13:24:13Z</time>
      </trkpt>
      <trkpt lat="48.44453" lon="2.05733">
        <ele>50.125977</ele>
        <time>2009-03-15T13:24:19Z</time>
      </trkpt>
      <trkpt lat="48.44441" lon="2.0573">
        <ele>50.125977</ele>
        <time>2009-03-15T13:24:56Z</time>
      </trkpt>
      <trkpt lat="48.44443" lon="2.05722">
        <ele>50.125977</ele>
        <time>2009-03-15T13:25:10Z</time>
      </trkpt>
      <trkpt lat="48.44446" lon="2.05719">
        <ele>50.125977</ele>
        <time>2009-03-15T13:25:58Z</time>
      </trkpt>
      <trkpt lat="48.44444" lon="2.05719">
        <ele>49.645264</ele>
        <time>2009-03-15T13:26:13Z</time>
      </trkpt>
      <trkpt lat="48.44453" lon="2.05713">
        <ele>48.68396</ele>
        <time>2009-03-15T13:29:48Z</time>
      </trkpt>
      <trkpt lat="48.44461" lon="2.05706">
        <ele>48.68396</ele>
        <time>2009-03-15T13:29:55Z</time>
      </trkpt>
      <trkpt lat="48.44472" lon="2.05696">
        <ele>48.203369</ele>
        <time>2009-03-15T13:30:04Z</time>
      </trkpt>
      <trkpt lat="48.44484" lon="2.05683">
        <ele>47.722534</ele>
        <time>2009-03-15T13:30:15Z</time>
      </trkpt>
      <trkpt lat="48.44497" lon="2.05674">
        <ele>47.722534</ele>
        <time>2009-03-15T13:30:25Z</time>
      </trkpt>
      <trkpt lat="48.44509" lon="2.05667">
        <ele>47.241821</ele>
        <time>2009-03-15T13:30:36Z</time>
      </trkpt>
      <trkpt lat="48.44515" lon="2.05659">
        <ele>47.241821</ele>
        <time>2009-03-15T13:30:46Z</time>
      </trkpt>
      <trkpt lat="48.44523" lon="2.05648">
        <ele>46.76123</ele>
        <time>2009-03-15T13:30:57Z</time>
      </trkpt>
      <trkpt lat="48.4453" lon="2.05642">
        <ele>45.799927</ele>
        <time>2009-03-15T13:31:07Z</time>
      </trkpt>
      <trkpt lat="48.44537" lon="2.05638">
        <ele>44.358032</ele>
        <time>2009-03-15T13:31:18Z</time>
      </trkpt>
      <trkpt lat="48.4454" lon="2.05633">
        <ele>43.396606</ele>
        <time>2009-03-15T13:31:27Z</time>
      </trkpt>
      <trkpt lat="48.44551" lon="2.05629">
        <ele>42.435425</ele>
        <time>2009-03-15T13:31:40Z</time>
      </trkpt>
      <trkpt lat="48.44559" lon="2.05626">
        <ele>40.993408</ele>
        <time>2009-03-15T13:31:51Z</time>
      </trkpt>
      <trkpt lat="48.44571" lon="2.05628">
        <ele>40.032104</ele>
        <time>2009-03-15T13:32:01Z</time>
      </trkpt>
      <trkpt lat="48.44576" lon="2.05625">
        <ele>39.070679</ele>
        <time>2009-03-15T13:32:10Z</time>
      </trkpt>
      <trkpt lat="48.44589" lon="2.05624">
        <ele>37.628662</ele>
        <time>2009-03-15T13:32:20Z</time>
      </trkpt>
      <trkpt lat="48.44602" lon="2.05631">
        <ele>36.186768</ele>
        <time>2009-03-15T13:32:32Z</time>
      </trkpt>
      <trkpt lat="48.44611" lon="2.05629">
        <ele>35.706055</ele>
        <time>2009-03-15T13:32:43Z</time>
      </trkpt>
      <trkpt lat="48.44617" lon="2.05621">
        <ele>35.706055</ele>
        <time>2009-03-15T13:32:53Z</time>
      </trkpt>
      <trkpt lat="48.44629" lon="2.05611">
        <ele>35.706055</ele>
        <time>2009-03-15T13:33:07Z</time>
      </trkpt>
      <trkpt lat="48.44638" lon="2.05601">
        <ele>35.706055</ele>
        <time>2009-03-15T13:33:15Z</time>
      </trkpt>
      <trkpt lat="48.44642" lon="2.05591">
        <ele>35.706055</ele>
        <time>2009-03-15T13:33:25Z</time>
      </trkpt>
      <trkpt lat="48.44648" lon="2.0558">
        <ele>35.225464</ele>
        <time>2009-03-15T13:33:34Z</time>
      </trkpt>
      <trkpt lat="48.4465" lon="2.05578">
        <ele>35.225464</ele>
        <time>2009-03-15T13:33:37Z</time>
      </trkpt>
      <trkpt lat="48.44654" lon="2.05566">
        <ele>35.225464</ele>
        <time>2009-03-15T13:33:46Z</time>
      </trkpt>
      <trkpt lat="48.44662" lon="2.05553">
        <ele>35.706055</ele>
        <time>2009-03-15T13:33:57Z</time>
      </trkpt>
      <trkpt lat="48.44668" lon="2.05541">
        <ele>36.186768</ele>
        <time>2009-03-15T13:34:05Z</time>
      </trkpt>
      <trkpt lat="48.44673" lon="2.05526">
        <ele>36.186768</ele>
        <time>2009-03-15T13:34:13Z</time>
      </trkpt>
      <trkpt lat="48.44676" lon="2.05514">
        <ele>36.186768</ele>
        <time>2009-03-15T13:34:22Z</time>
      </trkpt>
      <trkpt lat="48.44681" lon="2.05504">
        <ele>36.186768</ele>
        <time>2009-03-15T13:34:33Z</time>
      </trkpt>
      <trkpt lat="48.44686" lon="2.0549">
        <ele>36.186768</ele>
        <time>2009-03-15T13:34:43Z</time>
      </trkpt>
      <trkpt lat="48.44695" lon="2.05488">
        <ele>35.706055</ele>
        <time>2009-03-15T13:34:53Z</time>
      </trkpt>
      <trkpt lat="48.44706" lon="2.05487">
        <ele>36.66748</ele>
        <time>2009-03-15T13:35:03Z</time>
      </trkpt>
      <trkpt lat="48.44713" lon="2.0548">
        <ele>37.148071</ele>
        <time>2009-03-15T13:35:13Z</time>
      </trkpt>
      <trkpt lat="48.44724" lon="2.05472">
        <ele>37.628662</ele>
        <time>2009-03-15T13:35:25Z</time>
      </trkpt>
      <trkpt lat="48.4473" lon="2.05457">
        <ele>37.628662</ele>
        <time>2009-03-15T13:35:36Z</time>
      </trkpt>
      <trkpt lat="48.44735" lon="2.05439">
        <ele>39.55127</ele>
        <time>2009-03-15T13:35:47Z</time>
      </trkpt>
      <trkpt lat="48.44742" lon="2.05427">
        <ele>40.032104</ele>
        <time>2009-03-15T13:35:58Z</time>
      </trkpt>
      <trkpt lat="48.44747" lon="2.05417">
        <ele>39.55127</ele>
        <time>2009-03-15T13:36:06Z</time>
      </trkpt>
      <trkpt lat="48.44754" lon="2.05404">
        <ele>40.512817</ele>
        <time>2009-03-15T13:36:15Z</time>
      </trkpt>
      <trkpt lat="48.4476" lon="2.0539">
        <ele>41.473999</ele>
        <time>2009-03-15T13:36:27Z</time>
      </trkpt>
      <trkpt lat="48.44767" lon="2.05377">
        <ele>42.435425</ele>
        <time>2009-03-15T13:36:38Z</time>
      </trkpt>
      <trkpt lat="48.4477" lon="2.05376">
        <ele>42.916016</ele>
        <time>2009-03-15T13:36:40Z</time>
      </trkpt>
      <trkpt lat="48.44778" lon="2.05374">
        <ele>42.916016</ele>
        <time>2009-03-15T13:36:50Z</time>
      </trkpt>
      <trkpt lat="48.44785" lon="2.05377">
        <ele>42.916016</ele>
        <time>2009-03-15T13:36:58Z</time>
      </trkpt>
      <trkpt lat="48.4479" lon="2.05379">
        <ele>43.877319</ele>
        <time>2009-03-15T13:37:05Z</time>
      </trkpt>
      <trkpt lat="48.44798" lon="2.05382">
        <ele>44.358032</ele>
        <time>2009-03-15T13:37:10Z</time>
      </trkpt>
      <trkpt lat="48.44806" lon="2.05396">
        <ele>44.838623</ele>
        <time>2009-03-15T13:37:19Z</time>
      </trkpt>
      <trkpt lat="48.44812" lon="2.05406">
        <ele>45.319214</ele>
        <time>2009-03-15T13:37:24Z</time>
      </trkpt>
      <trkpt lat="48.44813" lon="2.05417">
        <ele>45.319214</ele>
        <time>2009-03-15T13:37:30Z</time>
      </trkpt>
      <trkpt lat="48.44815" lon="2.05422">
        <ele>46.28064</ele>
        <time>2009-03-15T13:37:34Z</time>
      </trkpt>
      <trkpt lat="48.44814" lon="2.05424">
        <ele>45.799927</ele>
        <time>2009-03-15T13:37:35Z</time>
      </trkpt>
      <trkpt lat="48.44815" lon="2.05428">
        <ele>45.319214</ele>
        <time>2009-03-15T13:37:38Z</time>
      </trkpt>
      <trkpt lat="48.44814" lon="2.0544">
        <ele>46.28064</ele>
        <time>2009-03-15T13:37:46Z</time>
      </trkpt>
      <trkpt lat="48.44812" lon="2.0545">
        <ele>46.76123</ele>
        <time>2009-03-15T13:37:57Z</time>
      </trkpt>
      <trkpt lat="48.44816" lon="2.05458">
        <ele>48.68396</ele>
        <time>2009-03-15T13:38:17Z</time>
      </trkpt>
      <trkpt lat="48.4483" lon="2.05463">
        <ele>49.645264</ele>
        <time>2009-03-15T13:38:27Z</time>
      </trkpt>
      <trkpt lat="48.44842" lon="2.05465">
        <ele>51.087158</ele>
        <time>2009-03-15T13:38:38Z</time>
      </trkpt>
      <trkpt lat="48.4485" lon="2.05473">
        <ele>52.048584</ele>
        <time>2009-03-15T13:38:49Z</time>
      </trkpt>
      <trkpt lat="48.44858" lon="2.05479">
        <ele>53.009766</ele>
        <time>2009-03-15T13:38:59Z</time>
      </trkpt>
      <trkpt lat="48.4487" lon="2.05485">
        <ele>54.451782</ele>
        <time>2009-03-15T13:39:10Z</time>
      </trkpt>
      <trkpt lat="48.44879" lon="2.05486">
        <ele>55.413086</ele>
        <time>2009-03-15T13:39:21Z</time>
      </trkpt>
      <trkpt lat="48.44893" lon="2.05491">
        <ele>56.374512</ele>
        <time>2009-03-15T13:39:31Z</time>
      </trkpt>
      <trkpt lat="48.449" lon="2.05502">
        <ele>56.855103</ele>
        <time>2009-03-15T13:39:42Z</time>
      </trkpt>
      <trkpt lat="48.44909" lon="2.05513">
        <ele>57.335815</ele>
        <time>2009-03-15T13:39:51Z</time>
      </trkpt>
      <trkpt lat="48.44912" lon="2.05524">
        <ele>57.816528</ele>
        <time>2009-03-15T13:39:59Z</time>
      </trkpt>
      <trkpt lat="48.44914" lon="2.0554">
        <ele>58.297119</ele>
        <time>2009-03-15T13:40:08Z</time>
      </trkpt>
      <trkpt lat="48.44917" lon="2.05551">
        <ele>58.77771</ele>
        <time>2009-03-15T13:40:17Z</time>
      </trkpt>
      <trkpt lat="48.44926" lon="2.05558">
        <ele>60.219727</ele>
        <time>2009-03-15T13:40:29Z</time>
      </trkpt>
      <trkpt lat="48.44925" lon="2.05548">
        <ele>59.739136</ele>
        <time>2009-03-15T13:40:39Z</time>
      </trkpt>
      <trkpt lat="48.44926" lon="2.05557">
        <ele>59.739136</ele>
        <time>2009-03-15T13:40:51Z</time>
      </trkpt>
      <trkpt lat="48.44927" lon="2.05569">
        <ele>59.739136</ele>
        <time>2009-03-15T13:40:59Z</time>
      </trkpt>
      <trkpt lat="48.44932" lon="2.05579">
        <ele>61.661743</ele>
        <time>2009-03-15T13:41:08Z</time>
      </trkpt>
      <trkpt lat="48.44938" lon="2.05586">
        <ele>61.661743</ele>
        <time>2009-03-15T13:41:15Z</time>
      </trkpt>
      <trkpt lat="48.44941" lon="2.05591">
        <ele>61.661743</ele>
        <time>2009-03-15T13:41:22Z</time>
      </trkpt>
      <trkpt lat="48.44945" lon="2.05605">
        <ele>61.661743</ele>
        <time>2009-03-15T13:41:32Z</time>
      </trkpt>
      <trkpt lat="48.44948" lon="2.05616">
        <ele>63.103638</ele>
        <time>2009-03-15T13:41:44Z</time>
      </trkpt>
      <trkpt lat="48.44953" lon="2.05638">
        <ele>63.584351</ele>
        <time>2009-03-15T13:42:00Z</time>
      </trkpt>
      <trkpt lat="48.44962" lon="2.05654">
        <ele>64.545654</ele>
        <time>2009-03-15T13:42:12Z</time>
      </trkpt>
      <trkpt lat="48.44967" lon="2.0567">
        <ele>64.545654</ele>
        <time>2009-03-15T13:42:20Z</time>
      </trkpt>
      <trkpt lat="48.44975" lon="2.05682">
        <ele>65.026367</ele>
        <time>2009-03-15T13:42:31Z</time>
      </trkpt>
      <trkpt lat="48.44986" lon="2.05689">
        <ele>66.468262</ele>
        <time>2009-03-15T13:42:41Z</time>
      </trkpt>
      <trkpt lat="48.44991" lon="2.05694">
        <ele>66.468262</ele>
        <time>2009-03-15T13:42:47Z</time>
      </trkpt>
      <trkpt lat="48.44997" lon="2.05702">
        <ele>67.429688</ele>
        <time>2009-03-15T13:42:56Z</time>
      </trkpt>
      <trkpt lat="48.45008" lon="2.05711">
        <ele>67.910278</ele>
        <time>2009-03-15T13:43:06Z</time>
      </trkpt>
      <trkpt lat="48.45016" lon="2.05715">
        <ele>68.390869</ele>
        <time>2009-03-15T13:43:15Z</time>
      </trkpt>
      <trkpt lat="48.45023" lon="2.05722">
        <ele>69.352295</ele>
        <time>2009-03-15T13:43:27Z</time>
      </trkpt>
      <trkpt lat="48.45028" lon="2.05729">
        <ele>69.832886</ele>
        <time>2009-03-15T13:43:36Z</time>
      </trkpt>
      <trkpt lat="48.45031" lon="2.05735">
        <ele>70.313477</ele>
        <time>2009-03-15T13:43:52Z</time>
      </trkpt>
      <trkpt lat="48.4504" lon="2.05739">
        <ele>71.274902</ele>
        <time>2009-03-15T13:44:00Z</time>
      </trkpt>
      <trkpt lat="48.45048" lon="2.0575">
        <ele>71.274902</ele>
        <time>2009-03-15T13:44:08Z</time>
      </trkpt>
      <trkpt lat="48.45052" lon="2.05761">
        <ele>72.236206</ele>
        <time>2009-03-15T13:44:15Z</time>
      </trkpt>
      <trkpt lat="48.45053" lon="2.0577">
        <ele>72.236206</ele>
        <time>2009-03-15T13:44:24Z</time>
      </trkpt>
      <trkpt lat="48.45055" lon="2.05776">
        <ele>72.236206</ele>
        <time>2009-03-15T13:44:29Z</time>
      </trkpt>
      <trkpt lat="48.45061" lon="2.0579">
        <ele>73.197632</ele>
        <time>2009-03-15T13:44:39Z</time>
      </trkpt>
      <trkpt lat="48.45066" lon="2.05802">
        <ele>74.158813</ele>
        <time>2009-03-15T13:44:47Z</time>
      </trkpt>
      <trkpt lat="48.4507" lon="2.05813">
        <ele>74.639526</ele>
        <time>2009-03-15T13:44:55Z</time>
      </trkpt>
      <trkpt lat="48.45072" lon="2.05827">
        <ele>74.158813</ele>
        <time>2009-03-15T13:45:03Z</time>
      </trkpt>
      <trkpt lat="48.45075" lon="2.05844">
        <ele>75.120239</ele>
        <time>2009-03-15T13:45:11Z</time>
      </trkpt>
      <trkpt lat="48.45081" lon="2.05854">
        <ele>75.120239</ele>
        <time>2009-03-15T13:45:18Z</time>
      </trkpt>
      <trkpt lat="48.45085" lon="2.05867">
        <ele>75.60083</ele>
        <time>2009-03-15T13:45:26Z</time>
      </trkpt>
      <trkpt lat="48.45085" lon="2.05869">
        <ele>76.081421</ele>
        <time>2009-03-15T13:45:27Z</time>
      </trkpt>
      <trkpt lat="48.45091" lon="2.0588">
        <ele>77.042847</ele>
        <time>2009-03-15T13:45:34Z</time>
      </trkpt>
      <trkpt lat="48.45096" lon="2.05889">
        <ele>77.523438</ele>
        <time>2009-03-15T13:45:41Z</time>
      </trkpt>
      <trkpt lat="48.45104" lon="2.05896">
        <ele>78.004028</ele>
        <time>2009-03-15T13:45:49Z</time>
      </trkpt>
      <trkpt lat="48.45109" lon="2.05899">
        <ele>77.042847</ele>
        <time>2009-03-15T13:45:58Z</time>
      </trkpt>
      <trkpt lat="48.45115" lon="2.05899">
        <ele>77.523438</ele>
        <time>2009-03-15T13:46:04Z</time>
      </trkpt>
      <trkpt lat="48.45128" lon="2.05902">
        <ele>78.965454</ele>
        <time>2009-03-15T13:46:14Z</time>
      </trkpt>
      <trkpt lat="48.45133" lon="2.05912">
        <ele>79.446045</ele>
        <time>2009-03-15T13:46:24Z</time>
      </trkpt>
      <trkpt lat="48.45132" lon="2.05919">
        <ele>81.368774</ele>
        <time>2009-03-15T13:46:29Z</time>
      </trkpt>
      <trkpt lat="48.45127" lon="2.05928">
        <ele>79.446045</ele>
        <time>2009-03-15T13:46:35Z</time>
      </trkpt>
      <trkpt lat="48.45125" lon="2.05932">
        <ele>79.926636</ele>
        <time>2009-03-15T13:46:37Z</time>
      </trkpt>
      <trkpt lat="48.45122" lon="2.05942">
        <ele>80.888184</ele>
        <time>2009-03-15T13:46:44Z</time>
      </trkpt>
      <trkpt lat="48.45116" lon="2.05951">
        <ele>80.888184</ele>
        <time>2009-03-15T13:46:50Z</time>
      </trkpt>
      <trkpt lat="48.4511" lon="2.05963">
        <ele>82.330078</ele>
        <time>2009-03-15T13:46:58Z</time>
      </trkpt>
      <trkpt lat="48.45104" lon="2.05972">
        <ele>81.849365</ele>
        <time>2009-03-15T13:47:07Z</time>
      </trkpt>
      <trkpt lat="48.45099" lon="2.05982">
        <ele>82.810791</ele>
        <time>2009-03-15T13:47:13Z</time>
      </trkpt>
      <trkpt lat="48.45089" lon="2.06003">
        <ele>82.810791</ele>
        <time>2009-03-15T13:47:27Z</time>
      </trkpt>
      <trkpt lat="48.4508" lon="2.0602">
        <ele>83.291382</ele>
        <time>2009-03-15T13:47:38Z</time>
      </trkpt>
      <trkpt lat="48.45073" lon="2.06032">
        <ele>83.291382</ele>
        <time>2009-03-15T13:47:45Z</time>
      </trkpt>
      <trkpt lat="48.45071" lon="2.06035">
        <ele>83.771973</ele>
        <time>2009-03-15T13:47:46Z</time>
      </trkpt>
      <trkpt lat="48.45068" lon="2.06044">
        <ele>83.771973</ele>
        <time>2009-03-15T13:47:55Z</time>
      </trkpt>
      <trkpt lat="48.45066" lon="2.06047">
        <ele>83.771973</ele>
        <time>2009-03-15T13:47:58Z</time>
      </trkpt>
      <trkpt lat="48.45062" lon="2.06057">
        <ele>84.252686</ele>
        <time>2009-03-15T13:48:08Z</time>
      </trkpt>
      <trkpt lat="48.45062" lon="2.0606">
        <ele>83.771973</ele>
        <time>2009-03-15T13:48:11Z</time>
      </trkpt>
      <trkpt lat="48.45056" lon="2.06072">
        <ele>83.771973</ele>
        <time>2009-03-15T13:48:19Z</time>
      </trkpt>
      <trkpt lat="48.45054" lon="2.06077">
        <ele>83.771973</ele>
        <time>2009-03-15T13:48:23Z</time>
      </trkpt>
      <trkpt lat="48.45053" lon="2.06081">
        <ele>84.252686</ele>
        <time>2009-03-15T13:48:27Z</time>
      </trkpt>
      <trkpt lat="48.45052" lon="2.06084">
        <ele>84.252686</ele>
        <time>2009-03-15T13:48:29Z</time>
      </trkpt>
      <trkpt lat="48.45046" lon="2.06095">
        <ele>83.771973</ele>
        <time>2009-03-15T13:48:37Z</time>
      </trkpt>
      <trkpt lat="48.45041" lon="2.06105">
        <ele>84.733398</ele>
        <time>2009-03-15T13:48:44Z</time>
      </trkpt>
      <trkpt lat="48.45036" lon="2.06117">
        <ele>84.252686</ele>
        <time>2009-03-15T13:48:52Z</time>
      </trkpt>
      <trkpt lat="48.4503" lon="2.06131">
        <ele>84.733398</ele>
        <time>2009-03-15T13:49:00Z</time>
      </trkpt>
      <trkpt lat="48.45024" lon="2.06141">
        <ele>85.213989</ele>
        <time>2009-03-15T13:49:07Z</time>
      </trkpt>
      <trkpt lat="48.45019" lon="2.06154">
        <ele>84.733398</ele>
        <time>2009-03-15T13:49:14Z</time>
      </trkpt>
      <trkpt lat="48.45015" lon="2.06166">
        <ele>84.733398</ele>
        <time>2009-03-15T13:49:22Z</time>
      </trkpt>
      <trkpt lat="48.45011" lon="2.06174">
        <ele>85.213989</ele>
        <time>2009-03-15T13:49:28Z</time>
      </trkpt>
      <trkpt lat="48.45006" lon="2.06186">
        <ele>85.213989</ele>
        <time>2009-03-15T13:49:35Z</time>
      </trkpt>
      <trkpt lat="48.45002" lon="2.06198">
        <ele>83.771973</ele>
        <time>2009-03-15T13:49:43Z</time>
      </trkpt>
      <trkpt lat="48.44997" lon="2.06208">
        <ele>85.213989</ele>
        <time>2009-03-15T13:49:50Z</time>
      </trkpt>
      <trkpt lat="48.4499" lon="2.06221">
        <ele>83.771973</ele>
        <time>2009-03-15T13:49:59Z</time>
      </trkpt>
      <trkpt lat="48.44985" lon="2.06232">
        <ele>85.213989</ele>
        <time>2009-03-15T13:50:07Z</time>
      </trkpt>
      <trkpt lat="48.44984" lon="2.06236">
        <ele>85.213989</ele>
        <time>2009-03-15T13:50:10Z</time>
      </trkpt>
      <trkpt lat="48.44978" lon="2.0625">
        <ele>83.771973</ele>
        <time>2009-03-15T13:50:20Z</time>
      </trkpt>
      <trkpt lat="48.44974" lon="2.06262">
        <ele>84.733398</ele>
        <time>2009-03-15T13:50:29Z</time>
      </trkpt>
      <trkpt lat="48.4497" lon="2.06272">
        <ele>84.252686</ele>
        <time>2009-03-15T13:50:36Z</time>
      </trkpt>
      <trkpt lat="48.44967" lon="2.06276">
        <ele>85.213989</ele>
        <time>2009-03-15T13:50:40Z</time>
      </trkpt>
      <trkpt lat="48.44963" lon="2.06285">
        <ele>84.733398</ele>
        <time>2009-03-15T13:50:48Z</time>
      </trkpt>
      <trkpt lat="48.44959" lon="2.06296">
        <ele>83.771973</ele>
        <time>2009-03-15T13:50:55Z</time>
      </trkpt>
      <trkpt lat="48.44952" lon="2.0631">
        <ele>83.771973</ele>
        <time>2009-03-15T13:51:05Z</time>
      </trkpt>
      <trkpt lat="48.44949" lon="2.06318">
        <ele>83.771973</ele>
        <time>2009-03-15T13:51:11Z</time>
      </trkpt>
      <trkpt lat="48.44944" lon="2.06332">
        <ele>83.771973</ele>
        <time>2009-03-15T13:51:20Z</time>
      </trkpt>
      <trkpt lat="48.44937" lon="2.06346">
        <ele>83.291382</ele>
        <time>2009-03-15T13:51:29Z</time>
      </trkpt>
      <trkpt lat="48.44935" lon="2.06352">
        <ele>84.252686</ele>
        <time>2009-03-15T13:51:34Z</time>
      </trkpt>
      <trkpt lat="48.44931" lon="2.06366">
        <ele>83.771973</ele>
        <time>2009-03-15T13:51:43Z</time>
      </trkpt>
      <trkpt lat="48.44928" lon="2.0637">
        <ele>83.771973</ele>
        <time>2009-03-15T13:51:47Z</time>
      </trkpt>
      <trkpt lat="48.4492" lon="2.06386">
        <ele>82.810791</ele>
        <time>2009-03-15T13:51:57Z</time>
      </trkpt>
      <trkpt lat="48.44916" lon="2.06393">
        <ele>82.810791</ele>
        <time>2009-03-15T13:52:01Z</time>
      </trkpt>
      <trkpt lat="48.44912" lon="2.06405">
        <ele>83.771973</ele>
        <time>2009-03-15T13:52:09Z</time>
      </trkpt>
      <trkpt lat="48.44908" lon="2.06413">
        <ele>83.771973</ele>
        <time>2009-03-15T13:52:16Z</time>
      </trkpt>
      <trkpt lat="48.44903" lon="2.06427">
        <ele>83.291382</ele>
        <time>2009-03-15T13:52:26Z</time>
      </trkpt>
      <trkpt lat="48.44898" lon="2.06438">
        <ele>83.771973</ele>
        <time>2009-03-15T13:52:34Z</time>
      </trkpt>
      <trkpt lat="48.44892" lon="2.06451">
        <ele>83.771973</ele>
        <time>2009-03-15T13:52:44Z</time>
      </trkpt>
      <trkpt lat="48.44891" lon="2.06452">
        <ele>83.291382</ele>
        <time>2009-03-15T13:52:45Z</time>
      </trkpt>
      <trkpt lat="48.44885" lon="2.06466">
        <ele>83.771973</ele>
        <time>2009-03-15T13:52:54Z</time>
      </trkpt>
      <trkpt lat="48.4488" lon="2.06478">
        <ele>83.771973</ele>
        <time>2009-03-15T13:53:02Z</time>
      </trkpt>
      <trkpt lat="48.44876" lon="2.06488">
        <ele>83.771973</ele>
        <time>2009-03-15T13:53:10Z</time>
      </trkpt>
      <trkpt lat="48.4487" lon="2.06502">
        <ele>82.810791</ele>
        <time>2009-03-15T13:53:18Z</time>
      </trkpt>
      <trkpt lat="48.44865" lon="2.06511">
        <ele>83.291382</ele>
        <time>2009-03-15T13:53:26Z</time>
      </trkpt>
      <trkpt lat="48.4486" lon="2.06525">
        <ele>82.810791</ele>
        <time>2009-03-15T13:53:36Z</time>
      </trkpt>
      <trkpt lat="48.44854" lon="2.06538">
        <ele>83.291382</ele>
        <time>2009-03-15T13:53:46Z</time>
      </trkpt>
      <trkpt lat="48.44848" lon="2.06548">
        <ele>82.810791</ele>
        <time>2009-03-15T13:53:53Z</time>
      </trkpt>
      <trkpt lat="48.44843" lon="2.06558">
        <ele>82.810791</ele>
        <time>2009-03-15T13:54:02Z</time>
      </trkpt>
      <trkpt lat="48.44838" lon="2.06572">
        <ele>82.330078</ele>
        <time>2009-03-15T13:54:11Z</time>
      </trkpt>
      <trkpt lat="48.44833" lon="2.06581">
        <ele>82.810791</ele>
        <time>2009-03-15T13:54:18Z</time>
      </trkpt>
      <trkpt lat="48.44828" lon="2.06591">
        <ele>82.810791</ele>
        <time>2009-03-15T13:54:25Z</time>
      </trkpt>
      <trkpt lat="48.44821" lon="2.06596">
        <ele>82.810791</ele>
        <time>2009-03-15T13:54:33Z</time>
      </trkpt>
      <trkpt lat="48.44819" lon="2.06605">
        <ele>82.330078</ele>
        <time>2009-03-15T13:54:43Z</time>
      </trkpt>
      <trkpt lat="48.44819" lon="2.06609">
        <ele>82.330078</ele>
        <time>2009-03-15T13:54:54Z</time>
      </trkpt>
      <trkpt lat="48.44818" lon="2.0661">
        <ele>80.888184</ele>
        <time>2009-03-15T13:55:39Z</time>
      </trkpt>
    </trkseg>
  </trk>
</gpx>